KTUL/TUL METAR and TAF weather

Enter ICAO airport designator
Station Type Date Time Source
KTUL METAR 2022/12/04 04:53 UTC NOAA

KTUL 040453Z 31003KT 10SM FEW090 BKN220 M01/M05 A3043 RMK AO2 SLP309 T10061050


Station Type Date Time Source
KTUL Decoded METAR 2022/12/04 04:53 UTC NOAA

TULSA INTERNATIONAL AIRPORT, OK, United States (KTUL) 36-12N 95-53W 207M
Dec 03, 2022 - 11:53 PM EST / 2022.12.04 0453 UTC
Wind: from the NW (310 degrees) at 3 MPH (3 KT):0
Visibility: 10 mile(s):0
Sky conditions: mostly cloudy
Temperature: 30.9 F (-0.6 C)
Dew Point: 23.0 F (-5.0 C)
Relative Humidity: 72%
Pressure (altimeter): 30.43 in. Hg (1030 hPa)
ob: KTUL 040453Z 31003KT 10SM FEW090 BKN220 M01/M05 A3043 RMK AO2 SLP309 T10061050
cycle: 5

Station Type Date Time Source
KTUL TAF 2022/12/03 18:22 UTC NOAA

TAF KTUL 031720Z 0318/0418 36014KT P6SM BKN250
FM040000 VRB04KT P6SM SCT100 BKN250
FM041200 00000KT P6SM SCT040 OVC090 PROB30 0412/0418 4SM -SHRA BR OVC040

Example: see airport list